Time;durP1;ratioP1;P1;durP2;ratioP2;P2;SDS_P1;SDS_P2;PMS_P1;PMS_P2;Temp;Humidity;BMP_temperature;BMP_pressure;BME280_temperature;BME280_humidity;BME280_pressure;Samples;Min_cycle;Max_cycle;Signal;HPM_P1;HPM_P2
2021/10/25 08:00:08;;;;;;;;;4.00;4.00;;;;;10.73;47.60;102922.13;4916149;29;10869;-70
2021/10/25 08:06:33;;;;;;;;;33.75;17.50;;;;;10.96;43.91;102937.31;4855981;29;10963;-69
2021/10/25 08:12:29;;;;;;;;;15.50;14.50;;;;;11.59;43.62;102935.78;4915873;29;10945;-70
2021/10/25 08:15:32;;;;;;;;;6.25;6.25;;;;;11.25;42.58;102952.22;4916017;29;10788;-69
2021/10/25 08:21:23;;;;;;;;;3.75;3.75;;;;;10.48;42.94;102943.16;4898177;29;10840;-70
2021/10/25 08:24:19;;;;;;;;;5.00;5.00;;;;;10.39;43.55;102944.81;4914642;29;10661;-70
2021/10/25 08:26:50;;;;;;;;;2.50;2.50;;;;;10.40;44.45;102953.94;4900785;29;10667;-69
2021/10/25 08:29:49;;;;;;;;;6.00;6.00;;;;;10.41;43.13;102942.59;4918780;29;10821;-68
2021/10/25 08:42:25;;;;;;;;;2.00;2.00;;;;;10.42;42.34;102943.41;4925018;29;11074;-69
2021/10/25 08:45:29;;;;;;;;;3.00;3.00;;;;;10.69;42.30;102941.22;4934579;29;10932;-69
2021/10/25 08:48:26;;;;;;;;;3.75;3.75;;;;;10.52;41.24;102952.56;4934233;29;10893;-69
2021/10/25 08:51:26;;;;;;;;;2.00;1.50;;;;;10.66;40.44;102947.31;4934597;29;10952;-70
2021/10/25 08:54:21;;;;;;;;;2.50;2.50;;;;;10.68;40.74;102950.63;4934234;29;11659;-69
2021/10/25 08:57:21;;;;;;;;;2.00;2.00;;;;;10.46;41.25;102952.84;4933337;29;11014;-69
2021/10/25 09:00:19;;;;;;;;;2.00;2.00;;;;;10.53;41.43;102950.63;4921648;29;10919;-70
2021/10/25 09:03:16;;;;;;;;;2.00;2.00;;;;;10.65;40.29;102953.13;4933905;29;10714;-70
2021/10/25 09:06:15;;;;;;;;;7.50;7.50;;;;;10.77;40.67;102951.75;4921443;29;10797;-70
2021/10/25 09:09:14;;;;;;;;;0.50;0.50;;;;;10.64;37.78;102951.47;4930582;29;11108;-69
2021/10/25 09:12:12;;;;;;;;;0.50;0.50;;;;;10.47;38.58;102960.03;4916374;29;10571;-68
2021/10/25 09:15:07;;;;;;;;;2.75;2.75;;;;;10.70;39.65;102953.94;4915289;29;10709;-68
2021/10/25 09:18:15;;;;;;;;;3.00;3.00;;;;;10.40;41.38;102948.41;4915512;29;10805;-70
2021/10/25 09:21:13;;;;;;;;;3.00;3.00;;;;;10.59;41.13;102955.06;4933448;29;10798;-69
2021/10/25 09:24:20;;;;;;;;;2.00;2.00;;;;;10.52;41.34;102944.28;4932918;29;10915;-69
2021/10/25 09:27:00;;;;;;;;;2.50;2.00;;;;;10.74;40.79;102946.78;4918379;29;10690;-69
2021/10/25 09:29:31;;;;;;;;;2.00;2.00;;;;;10.59;40.90;102952.31;4934793;29;10667;-71
2021/10/25 09:32:07;;;;;;;;;2.50;1.75;;;;;10.82;41.36;102954.50;4926476;29;10824;-70
2021/10/25 09:34:44;;;;;;;;;2.75;2.75;;;;;10.70;40.87;102955.88;4915562;29;10817;-70
2021/10/25 09:37:46;;;;;;;;;2.00;2.00;;;;;10.57;41.24;102951.72;4915333;29;10843;-69
2021/10/25 09:40:24;;;;;;;;;1.00;1.00;;;;;10.47;41.02;102960.84;4897216;29;10865;-69
2021/10/25 09:51:23;;;;;;;;;2.00;2.00;;;;;10.64;40.30;102957.81;4934476;29;11250;-70
2021/10/25 09:54:20;;;;;;;;;6.75;6.75;;;;;10.83;40.59;102964.47;4915511;29;10606;-70
2021/10/25 09:59:58;;;;;;;;;2.00;2.00;;;;;10.99;40.20;102958.94;4913403;29;10847;-70
2021/10/25 10:02:53;;;;;;;;;11.25;10.00;;;;;11.47;38.58;102959.38;4899951;29;10927;-70
2021/10/25 10:05:50;;;;;;;;;4.00;2.00;;;;;12.27;37.72;102962.06;4910271;29;10991;-70
2021/10/25 10:08:33;;;;;;;;;1.75;1.75;;;;;11.85;36.99;102961.47;4910178;29;10554;-70
2021/10/25 10:11:02;;;;;;;;;2.50;2.50;;;;;11.49;37.65;102959.91;4915745;29;10203;-70
2021/10/25 10:13:30;;;;;;;;;5.00;4.50;;;;;11.56;37.82;102958.50;4900846;29;11169;-70
2021/10/25 10:15:59;;;;;;;;;0.75;0.75;;;;;11.50;38.77;102958.78;4913641;29;10501;-70
2021/10/25 10:18:30;;;;;;;;;8.25;8.25;;;;;11.51;38.99;102957.72;4915766;29;10342;-70
2021/10/25 10:21:02;;;;;;;;;2.50;2.50;;;;;11.48;38.75;102961.03;4914836;29;10822;-70
2021/10/25 10:24:04;;;;;;;;;21.00;21.00;;;;;11.38;39.10;102962.72;4916095;29;10564;-70
2021/10/25 10:26:33;;;;;;;;;9.25;8.00;;;;;11.25;38.64;102962.47;4917248;29;11256;-69
2021/10/25 10:29:37;;;;;;;;;1.00;1.00;;;;;11.31;38.43;102964.97;4924051;29;10650;-69
2021/10/25 10:32:33;;;;;;;;;4.50;4.50;;;;;11.20;38.02;102956.97;4934300;29;10390;-70
2021/10/25 10:35:04;;;;;;;;;3.00;3.00;;;;;11.44;38.24;102952.47;4936190;29;10592;-70
2021/10/25 10:38:01;;;;;;;;;3.75;3.75;;;;;11.68;37.89;102956.25;4932673;29;10633;-70
2021/10/25 10:40:57;;;;;;;;;3.75;3.75;;;;;11.35;38.26;102949.44;4922364;29;10559;-69
2021/10/25 10:44:04;;;;;;;;;1.75;1.75;;;;;11.26;38.29;102945.56;4934557;29;10725;-69
2021/10/25 10:46:54;;;;;;;;;6.50;4.75;;;;;11.34;38.66;102949.69;4936363;29;10262;-71
2021/10/25 10:49:32;;;;;;;;;1.75;1.75;;;;;11.13;38.75;102952.53;4933435;29;11186;-69
2021/10/25 10:52:11;;;;;;;;;2.75;2.75;;;;;10.89;38.82;102945.94;4936286;29;10412;-69
2021/10/25 11:01:03;;;;;;;;;2.75;2.75;;;;;11.08;39.22;102948.94;4932772;29;10533;-71
2021/10/25 11:04:00;;;;;;;;;4.00;4.00;;;;;11.12;38.72;102947.28;4935046;29;10636;-70
2021/10/25 11:07:01;;;;;;;;;2.50;2.00;;;;;11.50;38.60;102944.94;4934504;29;10640;-70
2021/10/25 11:10:00;;;;;;;;;2.00;2.00;;;;;11.85;37.30;102936.50;4931915;29;10483;-70
2021/10/25 11:13:02;;;;;;;;;4.00;4.00;;;;;12.23;36.22;102939.63;4934327;29;10566;-69
2021/10/25 11:16:11;;;;;;;;;4.00;4.00;;;;;12.62;35.78;102944.34;4934362;29;10495;-70
2021/10/25 11:19:08;;;;;;;;;3.00;3.00;;;;;12.99;34.35;102936.22;4934412;29;10424;-69
2021/10/25 11:22:03;;;;;;;;;1.00;1.00;;;;;13.41;33.86;102945.81;4932684;29;10894;-71
2021/10/25 11:24:31;;;;;;;;;9.00;6.50;;;;;13.67;33.38;102945.50;4935270;29;10023;-71
2021/10/25 11:27:32;;;;;;;;;0.00;0.00;;;;;13.87;33.30;102946.06;4935575;29;10041;-71
2021/10/25 11:30:07;;;;;;;;;2.00;2.00;;;;;14.02;33.00;102953.38;4934906;29;9720;-71
2021/10/25 11:33:03;;;;;;;;;3.00;3.00;;;;;13.32;33.32;102948.41;4933968;29;9822;-72
2021/10/25 11:35:31;;;;;;;;;15.50;13.75;;;;;13.68;33.37;102953.56;4936271;29;9681;-71
2021/10/25 11:38:03;;;;;;;;;3.00;3.00;;;;;13.62;34.07;102950.00;4918943;29;9808;-71
2021/10/25 11:41:02;;;;;;;;;2.00;2.00;;;;;13.00;34.04;102950.94;4927016;29;9574;-70
2021/10/25 11:43:44;;;;;;;;;3.00;2.50;;;;;12.41;35.13;102952.81;4935260;29;9648;-71
2021/10/25 11:46:18;;;;;;;;;3.25;3.25;;;;;12.29;35.05;102946.81;4936520;29;9635;-70
2021/10/25 11:49:23;;;;;;;;;4.00;4.00;;;;;11.81;35.54;102952.09;4935556;29;9987;-70
2021/10/25 11:52:19;;;;;;;;;5.00;5.00;;;;;11.58;35.96;102961.00;4922799;29;10107;-71
2021/10/25 11:55:20;;;;;;;;;2.00;2.00;;;;;12.21;36.22;102947.41;4922339;29;10427;-71
2021/10/25 11:58:17;;;;;;;;;3.00;3.00;;;;;12.77;34.93;102956.13;4922268;29;10481;-71
2021/10/25 12:01:14;;;;;;;;;1.00;1.00;;;;;13.29;34.07;102950.97;4922113;29;10346;-71
2021/10/25 12:04:09;;;;;;;;;2.25;2.25;;;;;13.47;33.60;102958.53;4934687;29;10296;-70
2021/10/25 12:07:07;;;;;;;;;3.25;3.25;;;;;13.76;32.54;102950.09;4921138;29;10223;-71
2021/10/25 12:10:05;;;;;;;;;2.00;2.00;;;;;14.17;33.42;102947.59;4934137;29;9733;-71
2021/10/25 12:13:04;;;;;;;;;2.00;2.00;;;;;13.83;31.75;102950.56;4935310;29;9708;-71
2021/10/25 12:16:03;;;;;;;;;4.25;4.25;;;;;14.36;31.85;102949.56;4934951;29;9381;-70
2021/10/25 12:18:59;;;;;;;;;3.00;3.00;;;;;14.51;31.90;102942.94;4934692;29;9464;-71
2021/10/25 12:22:07;;;;;;;;;4.33;4.33;;;;;14.42;32.06;102942.78;4935473;29;9414;-71
2021/10/25 12:25:03;;;;;;;;;5.50;5.50;;;;;13.71;33.02;102938.22;4934938;29;9416;-71
2021/10/25 12:28:07;;;;;;;;;4.00;4.00;;;;;13.41;33.66;102947.75;4934429;29;9502;-71
2021/10/25 12:31:10;;;;;;;;;5.00;5.00;;;;;13.01;34.29;102949.81;4933784;29;10275;-71
2021/10/25 12:33:44;;;;;;;;;3.75;3.75;;;;;12.91;33.96;102956.31;4935299;29;9790;-72
2021/10/25 12:36:18;;;;;;;;;3.75;3.75;;;;;12.40;34.07;102953.94;4935904;29;9552;-71
2021/10/25 12:39:17;;;;;;;;;0.75;0.75;;;;;12.32;34.32;102951.75;4934542;29;9820;-71
2021/10/25 12:42:13;;;;;;;;;1.00;1.00;;;;;12.29;34.87;102957.91;4934728;29;9930;-70
2021/10/25 12:45:18;;;;;;;;;1.50;1.50;;;;;12.50;33.99;102959.44;4921969;29;9794;-70
2021/10/25 12:48:17;;;;;;;;;2.00;2.00;;;;;12.47;35.00;102956.38;4933956;29;9853;-70
2021/10/25 12:51:13;;;;;;;;;9.75;8.00;;;;;12.75;34.09;102952.00;4934599;29;10140;-71
2021/10/25 12:54:11;;;;;;;;;1.25;1.25;;;;;13.01;34.47;102953.41;4933934;29;10281;-71
2021/10/25 12:57:19;;;;;;;;;2.75;2.75;;;;;13.27;33.91;102954.03;4934463;29;10068;-70
2021/10/25 13:00:17;;;;;;;;;4.00;4.00;;;;;13.35;33.39;102955.34;4915556;29;10057;-70
2021/10/25 13:03:12;;;;;;;;;3.75;3.75;;;;;13.50;32.57;102946.00;4934567;29;9725;-71
2021/10/25 13:06:09;;;;;;;;;25.00;25.00;;;;;13.77;33.13;102945.38;4934192;29;9985;-71
2021/10/25 13:08:38;;;;;;;;;8.75;8.75;;;;;14.02;33.21;102947.81;4933894;29;10585;-72
2021/10/25 13:11:34;;;;;;;;;8.75;8.75;;;;;13.88;32.65;102955.25;4921603;29;9801;-72
2021/10/25 13:14:10;;;;;;;;;3.50;3.50;;;;;14.08;32.57;102952.19;4933501;29;9881;-71
2021/10/25 13:16:49;;;;;;;;;4.75;3.75;;;;;13.85;32.71;102951.09;4913257;29;9568;-71
2021/10/25 13:19:18;;;;;;;;;8.25;8.25;;;;;13.66;32.60;102944.69;4935411;29;9483;-71
2021/10/25 13:22:14;;;;;;;;;11.75;8.75;;;;;14.00;32.52;102944.50;4938174;29;9625;-72
2021/10/25 13:25:10;;;;;;;;;6.00;6.00;;;;;13.81;32.26;102938.94;4924538;29;9688;-73
2021/10/25 13:28:07;;;;;;;;;6.50;6.50;;;;;13.39;32.87;102950.00;4937951;29;9653;-72
2021/10/25 13:31:03;;;;;;;;;5.25;5.25;;;;;13.56;32.51;102945.63;4937794;29;9782;-71
2021/10/25 13:34:00;;;;;;;;;4.00;4.00;;;;;13.34;32.75;102953.66;4936536;29;9552;-72
2021/10/25 13:36:27;;;;;;;;;3.75;3.75;;;;;12.87;33.07;102952.44;4921398;29;9724;-71
2021/10/25 13:39:10;;;;;;;;;8.00;8.00;;;;;13.02;33.93;102952.28;4938105;29;9962;-71
2021/10/25 13:41:40;;;;;;;;;17.50;16.50;;;;;13.05;33.81;102953.69;4937256;29;9887;-73
2021/10/25 13:44:10;;;;;;;;;10.75;10.25;;;;;12.94;34.13;102952.94;4922368;29;10037;-71
2021/10/25 13:46:51;;;;;;;;;4.75;4.75;;;;;13.05;33.61;102946.16;4930545;29;10718;-72
2021/10/25 13:49:48;;;;;;;;;5.25;5.25;;;;;13.19;34.00;102959.34;4918477;29;9791;-71
2021/10/25 13:52:44;;;;;;;;;14.50;11.25;;;;;13.01;33.86;102956.19;4918436;29;9709;-72
2021/10/25 13:55:40;;;;;;;;;8.00;8.00;;;;;13.07;34.22;102951.44;4919427;29;9896;-71
2021/10/25 13:58:36;;;;;;;;;7.50;4.50;;;;;12.69;33.81;102947.59;4924603;29;9977;-72
2021/10/25 14:01:32;;;;;;;;;10.25;8.25;;;;;12.60;34.54;102958.50;4937317;29;10000;-72
2021/10/25 14:04:28;;;;;;;;;4.25;4.25;;;;;12.75;34.32;102957.56;4937211;29;10016;-72
2021/10/25 14:07:31;;;;;;;;;7.00;7.00;;;;;12.13;34.54;102953.56;4937091;29;9882;-72
2021/10/25 14:10:50;;;;;;;;;7.50;7.50;;;;;11.90;35.46;102955.91;4937028;29;10033;-71
2021/10/25 14:13:31;;;;;;;;;8.75;8.75;;;;;11.63;36.03;102949.88;4937969;29;10207;-72
2021/10/25 14:17:00;;;;;;;;;10.50;9.25;;;;;11.34;35.75;102947.75;4924295;29;10413;-72
2021/10/25 14:19:23;;;;;;;;;10.00;10.00;;;;;11.23;35.96;102960.00;4936542;29;10371;-72
2021/10/25 14:21:51;;;;;;;;;13.00;13.00;;;;;11.18;35.89;102970.25;4920366;29;10608;-72
2021/10/25 14:24:47;;;;;;;;;9.50;9.50;;;;;11.11;36.91;102967.75;4935282;29;10711;-72
2021/10/25 14:27:43;;;;;;;;;16.75;16.75;;;;;10.95;36.84;102971.66;4936462;29;11024;-72
2021/10/25 14:30:11;;;;;;;;;22.25;20.75;;;;;10.79;36.97;102971.66;4937748;29;11174;-72
2021/10/25 14:33:07;;;;;;;;;22.00;21.50;;;;;10.61;37.47;102972.22;4895759;29;11690;-72
2021/10/25 14:36:02;;;;;;;;;20.00;19.00;;;;;10.86;37.38;102982.47;4898879;29;11193;-72
2021/10/25 14:39:35;;;;;;;;;30.75;27.00;;;;;10.56;37.91;102980.50;4912528;29;11599;-71
2021/10/25 14:48:02;;;;;;;;;55.00;46.00;;;;;10.64;38.64;102985.50;4936236;29;11254;-71
2021/10/25 14:54:06;;;;;;;;;24.00;24.00;;;;;10.55;38.40;102971.38;4936499;29;11539;-71
2021/10/25 14:56:34;;;;;;;;;26.25;26.25;;;;;10.39;38.94;102977.16;4924177;29;11579;-72
2021/10/25 14:59:30;;;;;;;;;23.50;23.50;;;;;10.24;39.58;102983.50;4898106;29;11567;-72
2021/10/25 15:02:26;;;;;;;;;26.50;26.50;;;;;10.16;40.13;102990.38;4909679;29;12293;-70
2021/10/25 15:05:22;;;;;;;;;24.75;23.75;;;;;10.13;40.27;102982.63;4913764;29;11575;-71
2021/10/25 15:08:17;;;;;;;;;25.75;25.75;;;;;10.11;40.21;102984.81;4904685;29;11587;-73
2021/10/25 15:10:47;;;;;;;;;34.00;32.25;;;;;10.02;40.26;102984.50;4913241;29;11547;-71
2021/10/25 15:13:42;;;;;;;;;31.75;31.50;;;;;9.89;40.71;102996.09;4923056;29;11624;-71
2021/10/25 15:16:24;;;;;;;;;34.50;29.75;;;;;9.99;40.54;102995.28;4929738;29;12350;-71
2021/10/25 15:19:20;;;;;;;;;36.00;35.75;;;;;10.04;40.52;102992.53;4916852;29;11643;-72
2021/10/25 15:21:48;;;;;;;;;43.25;39.75;;;;;9.99;40.85;102998.06;4915992;29;11595;-71
2021/10/25 15:24:52;;;;;;;;;58.75;40.50;;;;;9.90;41.18;102999.69;4904142;29;11596;-71
2021/10/25 15:27:54;;;;;;;;;13.50;12.50;;;;;9.66;41.51;102996.50;4889063;29;11627;-71
2021/10/25 15:30:23;;;;;;;;;59.75;48.50;;;;;9.72;41.30;102996.28;4932441;29;11558;-70
2021/10/25 15:33:21;;;;;;;;;57.75;49.50;;;;;9.64;41.19;103007.84;4923218;29;11559;-69
2021/10/25 15:35:53;;;;;;;;;61.25;49.00;;;;;9.66;41.71;103007.56;4936587;29;12435;-69
2021/10/25 15:38:50;;;;;;;;;66.25;51.00;;;;;9.59;41.85;103007.84;4934906;29;11564;-69
2021/10/25 15:41:46;;;;;;;;;45.75;41.75;;;;;9.53;41.68;103014.41;4922641;29;11581;-69
2021/10/25 15:44:43;;;;;;;;;56.00;47.00;;;;;9.42;41.76;103013.50;4935313;29;11578;-69
2021/10/25 15:47:39;;;;;;;;;61.25;52.00;;;;;9.35;41.77;103017.59;4934239;29;11594;-70
2021/10/25 15:50:21;;;;;;;;;60.50;48.25;;;;;9.40;41.49;103025.94;4934413;29;11569;-70
2021/10/25 15:52:49;;;;;;;;;64.25;50.50;;;;;9.16;41.53;103018.03;4936069;29;11589;-70
2021/10/25 15:55:46;;;;;;;;;61.50;50.75;;;;;9.22;41.82;103029.97;4927669;29;11561;-70
2021/10/25 15:58:42;;;;;;;;;63.75;53.50;;;;;9.25;41.95;103025.81;4935397;29;11553;-70
2021/10/25 16:01:38;;;;;;;;;63.50;51.00;;;;;9.18;41.88;103023.28;4934896;29;11583;-68
2021/10/25 16:04:06;;;;;;;;;110.33;92.67;;;;;8.97;41.95;103018.69;4934521;29;11571;-68
2021/10/25 16:07:06;;;;;;;;;87.00;68.75;;;;;8.85;42.26;103027.16;4934494;29;8865;-68
2021/10/25 16:10:02;;;;;;;;;84.00;68.00;;;;;8.93;42.77;103029.44;4931468;29;12395;-69
2021/10/25 16:12:58;;;;;;;;;81.33;63.33;;;;;8.83;42.72;103021.91;4931728;29;11573;-70
2021/10/25 16:15:55;;;;;;;;;91.33;66.67;;;;;8.75;42.67;103033.44;4934618;29;11586;-69
2021/10/25 16:18:38;;;;;;;;;76.00;61.00;;;;;8.77;42.63;103028.47;4934328;29;11674;-69
2021/10/25 16:21:06;;;;;;;;;81.33;64.33;;;;;8.84;43.02;103036.56;4935402;29;11610;-69
2021/10/25 16:24:01;;;;;;;;;51.50;36.75;;;;;8.79;42.75;103039.25;4934785;29;11656;-69
2021/10/25 16:26:57;;;;;;;;;76.25;60.75;;;;;8.81;42.58;103045.34;4922124;29;11649;-69
2021/10/25 16:29:52;;;;;;;;;77.50;61.50;;;;;8.84;42.80;103042.91;4922432;29;11784;-69
2021/10/25 16:32:37;;;;;;;;;76.75;61.00;;;;;8.56;43.21;103048.69;4921064;29;11552;-69
2021/10/25 16:35:19;;;;;;;;;61.00;49.25;;;;;8.39;43.25;103043.25;4934766;29;11556;-69
2021/10/25 16:38:15;;;;;;;;;68.25;55.50;;;;;8.32;43.62;103042.59;4933043;29;11569;-69
2021/10/25 16:41:11;;;;;;;;;71.75;57.75;;;;;8.55;43.16;103047.03;4915872;29;11564;-69
2021/10/25 16:44:07;;;;;;;;;76.50;57.50;;;;;8.35;43.56;103045.69;4934375;29;11559;-68
2021/10/25 16:47:05;;;;;;;;;74.50;57.75;;;;;8.51;42.99;103045.84;4935413;29;11704;-68
2021/10/25 16:49:38;;;;;;;;;70.75;57.00;;;;;8.50;43.36;103053.31;4936391;29;11659;-69
2021/10/25 17:04:10;;;;;;;;;59.00;50.00;;;;;8.26;43.93;103044.47;4939584;29;11634;-68
2021/10/25 17:09:49;;;;;;;;;63.00;51.50;;;;;8.26;43.53;103044.47;4939198;29;11584;-69
2021/10/25 17:12:45;;;;;;;;;62.50;52.50;;;;;8.13;43.53;103038.50;4924810;29;11528;-69
2021/10/25 17:15:41;;;;;;;;;62.00;48.00;;;;;8.25;43.21;103048.31;4937813;29;11716;-69
2021/10/25 17:18:09;;;;;;;;;54.75;45.75;;;;;8.18;43.28;103038.56;4938242;29;12375;-68
2021/10/25 17:21:14;;;;;;;;;59.75;49.25;;;;;8.10;43.15;103053.63;4936899;29;11672;-70
2021/10/25 17:23:43;;;;;;;;;59.25;47.00;;;;;8.12;43.32;103047.88;4925356;29;11573;-70
2021/10/25 17:26:11;;;;;;;;;40.50;38.00;;;;;8.02;43.81;103045.81;4922793;29;11558;-71
2021/10/25 17:28:39;;;;;;;;;63.25;52.25;;;;;7.96;43.56;103049.59;4938091;29;11567;-71
2021/10/25 17:31:40;;;;;;;;;71.75;52.75;;;;;7.96;43.20;103047.66;4925261;29;12432;-69
2021/10/25 17:34:36;;;;;;;;;69.50;54.50;;;;;7.88;43.06;103047.28;4938070;29;11791;-70
2021/10/25 17:37:33;;;;;;;;;78.50;60.00;;;;;7.75;43.60;103049.34;4937255;29;12438;-70
2021/10/25 17:40:31;;;;;;;;;96.67;79.33;;;;;7.91;44.81;103053.13;4925073;29;11592;-70
2021/10/25 17:43:28;;;;;;;;;114.33;101.33;;;;;7.53;46.44;103067.75;4937839;29;8868;-70
2021/10/25 17:46:23;;;;;;;;;121.00;99.67;;;;;7.44;47.27;103058.25;4936963;29;8868;-69
2021/10/25 17:48:52;;;;;;;;;148.00;120.50;;;;;7.37;47.73;103063.94;4937798;29;8953;-70
2021/10/25 17:51:39;;;;;;;;;139.00;113.75;;;;;6.95;49.37;103063.50;4937559;29;8837;-69
2021/10/25 17:54:09;;;;;;;;;135.75;122.50;;;;;6.65;49.92;103064.63;4934094;28;8896;-71
2021/10/25 17:56:54;;;;;;;;;154.75;135.25;;;;;6.51;50.65;103070.66;4933586;28;8880;-70
2021/10/25 17:59:38;;;;;;;;;151.00;136.75;;;;;6.56;51.01;103077.09;4921718;28;9614;-69
2021/10/25 18:02:20;;;;;;;;;151.25;128.50;;;;;6.45;51.24;103078.00;4933421;29;9634;-69
2021/10/25 18:05:03;;;;;;;;;155.00;140.00;;;;;6.56;51.18;103081.75;4937292;29;8884;-70
2021/10/25 18:07:59;;;;;;;;;159.00;131.00;;;;;6.21;52.53;103077.25;4934383;29;8899;-69
2021/10/25 18:10:50;;;;;;;;;167.00;145.00;;;;;6.06;52.73;103075.00;4936404;29;8873;-69
2021/10/25 18:13:22;;;;;;;;;160.75;140.25;;;;;6.03;53.18;103078.22;4932332;29;8857;-70
2021/10/25 18:15:51;;;;;;;;;171.75;147.50;;;;;5.77;54.12;103079.56;4938043;29;8860;-71
2021/10/25 18:18:47;;;;;;;;;173.75;143.50;;;;;5.62;55.01;103079.22;4936244;29;8983;-70
2021/10/25 18:21:49;;;;;;;;;168.25;144.25;;;;;5.86;54.05;103072.63;4936840;29;8976;-70
2021/10/25 18:24:45;;;;;;;;;169.25;139.00;;;;;6.00;54.17;103065.00;4924485;29;8857;-69
2021/10/25 18:27:42;;;;;;;;;184.50;157.00;;;;;6.08;54.26;103075.59;4907098;29;8843;-70
2021/10/25 18:30:38;;;;;;;;;222.75;166.75;;;;;5.86;54.54;103074.53;4936420;29;8933;-70
2021/10/25 18:33:34;;;;;;;;;217.75;173.00;;;;;5.80;54.85;103087.31;4933540;29;8846;-71
2021/10/25 18:36:30;;;;;;;;;220.50;177.00;;;;;5.51;55.36;103089.09;4924038;29;8874;-70
2021/10/25 18:39:25;;;;;;;;;198.00;161.50;;;;;5.42;56.16;103104.25;4936880;29;8897;-70
2021/10/25 18:42:21;;;;;;;;;203.75;171.25;;;;;5.48;55.82;103099.75;4924110;29;9623;-70
2021/10/25 18:45:18;;;;;;;;;225.25;195.50;;;;;5.58;55.36;103099.97;4936768;29;8854;-70
2021/10/25 18:48:16;;;;;;;;;244.50;188.25;;;;;5.67;54.79;103089.47;4935461;29;8842;-70
2021/10/25 18:51:15;;;;;;;;;239.50;179.00;;;;;5.49;54.95;103099.50;4936854;29;8873;-70
2021/10/25 18:54:11;;;;;;;;;241.00;185.50;;;;;5.36;55.80;103096.13;4936643;29;8874;-70
2021/10/25 18:57:07;;;;;;;;;250.00;200.00;;;;;5.22;55.78;103099.13;4916645;29;8857;-71
2021/10/25 19:00:08;;;;;;;;;156.50;123.25;;;;;5.17;55.68;103089.94;4917995;29;8877;-70
2021/10/25 19:03:06;;;;;;;;;261.75;211.00;;;;;5.24;55.71;103096.97;4921834;29;8862;-70
2021/10/25 19:06:02;;;;;;;;;293.00;225.50;;;;;5.09;57.07;103093.84;4936818;29;8850;-71
2021/10/25 19:08:58;;;;;;;;;259.25;200.50;;;;;4.87;57.50;103100.94;4936045;29;8847;-69
2021/10/25 19:11:53;;;;;;;;;224.75;180.00;;;;;4.78;57.81;103100.44;4923603;29;8843;-70
2021/10/25 19:14:49;;;;;;;;;252.75;200.00;;;;;4.71;58.03;103103.28;4935769;29;8865;-69
2021/10/25 19:17:45;;;;;;;;;223.75;189.25;;;;;4.78;57.97;103096.88;4935692;29;8842;-70
2021/10/25 19:20:41;;;;;;;;;262.00;219.75;;;;;4.60;58.94;103103.22;4936492;29;8854;-71
2021/10/25 19:23:36;;;;;;;;;246.00;212.00;;;;;4.60;59.28;103104.09;4936478;29;9600;-71
2021/10/25 19:26:33;;;;;;;;;291.25;225.00;;;;;4.49;58.96;103112.22;4922863;29;9695;-70
2021/10/25 19:29:30;;;;;;;;;189.50;139.75;;;;;4.47;59.23;103107.00;4935817;29;8850;-70
2021/10/25 19:32:26;;;;;;;;;266.25;224.00;;;;;4.24;59.92;103113.19;4935744;29;9604;-69
2021/10/25 19:35:22;;;;;;;;;275.50;217.75;;;;;4.26;59.63;103110.22;4935744;29;8894;-70
2021/10/25 19:38:18;;;;;;;;;263.50;208.25;;;;;4.32;59.83;103112.03;4923513;29;8831;-69
2021/10/25 19:41:15;;;;;;;;;265.00;216.00;;;;;4.50;59.18;103106.53;4935616;29;9593;-69
2021/10/25 19:44:12;;;;;;;;;262.75;218.00;;;;;4.42;59.13;103117.78;4935135;29;8838;-69
2021/10/25 19:47:07;;;;;;;;;279.25;223.25;;;;;4.67;58.48;103120.41;4916662;29;9626;-70
2021/10/25 19:50:07;;;;;;;;;266.75;217.50;;;;;4.35;59.38;103117.88;4904488;29;8853;-69
2021/10/25 19:53:04;;;;;;;;;272.00;234.75;;;;;4.29;59.88;103115.22;4935413;29;8897;-69
2021/10/25 19:56:00;;;;;;;;;306.75;244.25;;;;;4.16;60.25;103121.72;4935201;29;8845;-68
2021/10/25 19:58:55;;;;;;;;;307.75;244.00;;;;;4.14;60.21;103119.22;4922891;29;8858;-69
2021/10/25 20:01:51;;;;;;;;;328.00;256.00;;;;;4.02;60.95;103123.75;4922834;29;8842;-70
2021/10/25 20:04:47;;;;;;;;;272.75;239.75;;;;;4.00;61.15;103125.06;4935369;29;8838;-69
2021/10/25 20:07:42;;;;;;;;;313.75;253.25;;;;;3.81;61.39;103133.25;4934405;29;8876;-70
2021/10/25 20:10:38;;;;;;;;;345.25;275.75;;;;;3.86;61.74;103125.19;4934890;29;8854;-70
2021/10/25 20:13:38;;;;;;;;;290.50;227.75;;;;;3.93;61.43;103124.28;4935319;29;8826;-71
2021/10/25 20:16:34;;;;;;;;;297.50;242.50;;;;;3.84;60.58;103127.34;4923356;29;9720;-69
2021/10/25 20:19:30;;;;;;;;;249.00;220.75;;;;;4.01;60.33;103113.88;4916415;29;8837;-69
2021/10/25 20:22:26;;;;;;;;;300.00;229.00;;;;;3.78;60.41;103130.13;4916499;29;8928;-70
2021/10/25 20:25:22;;;;;;;;;239.75;188.00;;;;;3.78;60.45;103122.75;4903344;29;8837;-70
2021/10/25 20:28:18;;;;;;;;;243.50;203.00;;;;;3.96;59.64;103119.19;4931140;29;8843;-69
2021/10/25 20:31:13;;;;;;;;;240.00;202.50;;;;;4.10;59.29;103117.97;4934121;29;8843;-70
2021/10/25 20:34:09;;;;;;;;;206.50;180.75;;;;;4.06;58.80;103122.22;4928545;29;8846;-71
2021/10/25 20:37:05;;;;;;;;;215.50;184.00;;;;;3.76;60.36;103115.84;4934828;29;8830;-70
2021/10/25 20:40:01;;;;;;;;;194.75;164.75;;;;;3.46;60.93;103126.66;4915993;29;8849;-70
2021/10/25 20:42:57;;;;;;;;;165.75;139.00;;;;;3.53;61.08;103124.69;4916387;29;8864;-70
2021/10/25 20:45:53;;;;;;;;;225.50;192.50;;;;;3.50;60.93;103130.59;4903640;29;8833;-71
2021/10/25 20:48:49;;;;;;;;;185.75;155.50;;;;;3.50;61.17;103125.13;4916103;29;8884;-71
2021/10/25 20:51:45;;;;;;;;;175.50;140.50;;;;;3.47;61.30;103122.84;4903566;29;8844;-71
2021/10/25 20:54:41;;;;;;;;;150.25;131.00;;;;;3.54;61.06;103124.47;4925769;29;8985;-70
2021/10/25 20:57:36;;;;;;;;;136.75;120.50;;;;;3.39;61.89;103123.97;4933727;29;8846;-70
2021/10/25 21:00:32;;;;;;;;;116.50;107.75;;;;;3.53;60.62;103130.16;4934876;29;8862;-70
2021/10/25 21:03:28;;;;;;;;;140.00;120.50;;;;;3.41;60.37;103127.31;4922216;29;8847;-70
2021/10/25 21:06:24;;;;;;;;;163.50;139.25;;;;;3.39;61.00;103125.88;4935000;29;8976;-69
2021/10/25 21:09:20;;;;;;;;;173.50;138.50;;;;;3.40;61.06;103133.00;4934199;29;8858;-70
2021/10/25 21:12:15;;;;;;;;;176.25;144.00;;;;;3.32;61.45;103134.13;4934705;29;8839;-70
2021/10/25 21:15:11;;;;;;;;;167.75;139.25;;;;;3.25;61.35;103125.97;4934530;29;8843;-70
2021/10/25 21:18:06;;;;;;;;;181.25;157.75;;;;;3.36;61.12;103129.88;4934677;29;8838;-70
2021/10/25 21:21:02;;;;;;;;;213.50;180.50;;;;;3.34;61.56;103127.34;4934647;29;8827;-72
2021/10/25 21:24:02;;;;;;;;;206.75;172.25;;;;;3.52;60.93;103120.25;4934563;29;8846;-70
2021/10/25 21:26:57;;;;;;;;;191.25;159.75;;;;;3.20;61.45;103120.31;4921688;29;8838;-71
2021/10/25 21:29:53;;;;;;;;;241.25;184.50;;;;;3.27;61.13;103129.31;4934613;29;8839;-70
2021/10/25 21:32:48;;;;;;;;;307.50;242.75;;;;;3.42;61.18;103120.78;4934453;29;8843;-69
2021/10/25 21:35:44;;;;;;;;;328.25;238.00;;;;;3.26;61.04;103115.84;4934676;29;8839;-71
2021/10/25 21:38:56;;;;;;;;;353.75;264.25;;;;;3.18;61.00;103118.88;4934582;29;8933;-70
2021/10/25 21:41:52;;;;;;;;;299.50;232.00;;;;;3.01;62.50;103118.56;4923627;29;8842;-70
2021/10/25 21:44:48;;;;;;;;;320.50;246.25;;;;;3.05;61.81;103120.63;4926163;29;8850;-69
2021/10/25 21:47:43;;;;;;;;;311.00;241.25;;;;;3.03;61.29;103121.91;4925379;29;8861;-69
2021/10/25 21:50:40;;;;;;;;;282.25;219.00;;;;;2.68;63.32;103126.97;4916966;29;8937;-69
2021/10/25 21:53:36;;;;;;;;;246.25;195.25;;;;;2.51;64.27;103127.47;4925086;29;8854;-70
2021/10/25 21:56:32;;;;;;;;;250.25;211.25;;;;;2.24;64.46;103134.13;4936731;29;9596;-69
2021/10/25 21:59:27;;;;;;;;;200.50;154.00;;;;;2.34;63.26;103125.47;4937709;29;8875;-70
2021/10/25 22:02:23;;;;;;;;;209.00;166.75;;;;;2.31;64.08;103117.72;4913366;29;8865;-70
2021/10/25 22:05:19;;;;;;;;;158.75;135.75;;;;;2.46;63.32;103126.47;4937750;29;8838;-70
2021/10/25 22:08:14;;;;;;;;;112.50;103.25;;;;;2.36;62.75;103117.88;4937214;29;8858;-69
2021/10/25 22:11:10;;;;;;;;;111.50;94.75;;;;;2.51;61.40;103119.28;4937738;29;8862;-70